Page Field Fort Myers US
ICAO: KFMY
IATA: FMY
Category: Medium
Scheduled Services: No

Elevation: 17 ft
TransAlt. 18000 ft.

Airport Communications:
FORT MYERS APP/DEP:126.8
ATIS:123.725
CLNC DEL:121.7
CTAF:119
GND:121.7
MIAMI RDO:122.2
TWR:119
UNICOM:130.55

KFMY Zoom In..

If you have problems with the map follow the link
https://www.worldairports.se/pages/airport.php?
ICAO=KFMY

Runways:

(A) RW 05 length 6406 ft width 150 ft
ILS 110.70 / hdg 51

(B) RW 13 length 4912 ft width 150 ft
---- / hdg 133

(C) RW 23 length 6406 ft width 150 ft
---- / hdg 231

(D) RW 31 length 4912 ft width 150 ft
---- / hdg 313

Location; KFMY
Day. 27 / Time. 05.53 Zulu
* Altimeter: 30.01
* Temperature: 14° c. 57.2°f.
* Wind from: 100° Speed 05 kn.
Dewpoint: 07° c.
Visibility: 10 Statute Miles.
Clouds: Clear (automated report).

KFMY 270553Z AUTO 10005KT 10SM CLR 14/07 A3001 RMK AO2 SLP164 T01440072 10167 20133 56010


Wind From 100°
Speed 05 kn.

 
 
jpsmedia worldairports.se 2020   terms of use